sensor_id;sensor_type;location;lat;lon;timestamp;temperature;humidity
423;DHT22;198;48.752;9.180;2023-05-29T00:02:08;16.60;50.40
423;DHT22;198;48.752;9.180;2023-05-29T00:04:33;16.60;51.30
423;DHT22;198;48.752;9.180;2023-05-29T00:06:59;16.60;51.80
423;DHT22;198;48.752;9.180;2023-05-29T00:09:24;16.50;52.30
423;DHT22;198;48.752;9.180;2023-05-29T00:11:50;16.40;52.70
423;DHT22;198;48.752;9.180;2023-05-29T00:14:18;16.40;53.20
423;DHT22;198;48.752;9.180;2023-05-29T00:16:45;16.30;54.00
423;DHT22;198;48.752;9.180;2023-05-29T00:19:12;16.30;53.10
423;DHT22;198;48.752;9.180;2023-05-29T00:21:38;16.30;53.10
423;DHT22;198;48.752;9.180;2023-05-29T00:24:04;16.20;52.50
423;DHT22;198;48.752;9.180;2023-05-29T00:26:29;16.30;52.60
423;DHT22;198;48.752;9.180;2023-05-29T00:28:55;16.20;52.80
423;DHT22;198;48.752;9.180;2023-05-29T00:31:20;16.20;53.10
423;DHT22;198;48.752;9.180;2023-05-29T00:33:46;16.10;53.20
423;DHT22;198;48.752;9.180;2023-05-29T00:36:11;16.10;53.80
423;DHT22;198;48.752;9.180;2023-05-29T00:38:37;16.10;54.40
423;DHT22;198;48.752;9.180;2023-05-29T00:41:02;16.00;54.80
423;DHT22;198;48.752;9.180;2023-05-29T00:43:28;16.00;55.70
423;DHT22;198;48.752;9.180;2023-05-29T00:45:54;16.00;54.80
423;DHT22;198;48.752;9.180;2023-05-29T00:48:19;16.00;54.90
423;DHT22;198;48.752;9.180;2023-05-29T00:50:45;16.00;55.20
423;DHT22;198;48.752;9.180;2023-05-29T00:53:11;15.90;55.60
423;DHT22;198;48.752;9.180;2023-05-29T00:55:37;15.90;56.00
423;DHT22;198;48.752;9.180;2023-05-29T00:58:03;15.80;56.40
423;DHT22;198;48.752;9.180;2023-05-29T01:00:29;15.80;56.70
423;DHT22;198;48.752;9.180;2023-05-29T01:02:56;15.80;56.10
423;DHT22;198;48.752;9.180;2023-05-29T01:05:23;15.70;55.80
423;DHT22;198;48.752;9.180;2023-05-29T01:07:49;15.70;56.60
423;DHT22;198;48.752;9.180;2023-05-29T01:10:15;15.70;57.10
423;DHT22;198;48.752;9.180;2023-05-29T01:13:21;15.60;57.70
423;DHT22;198;48.752;9.180;2023-05-29T01:21:14;15.50;58.30
423;DHT22;198;48.752;9.180;2023-05-29T01:26:46;15.40;59.20
423;DHT22;198;48.752;9.180;2023-05-29T01:29:15;15.30;59.70
423;DHT22;198;48.752;9.180;2023-05-29T01:31:44;15.20;60.10
423;DHT22;198;48.752;9.180;2023-05-29T01:34:10;15.10;60.80
423;DHT22;198;48.752;9.180;2023-05-29T01:36:36;15.10;61.40
423;DHT22;198;48.752;9.180;2023-05-29T01:39:02;15.00;62.50
423;DHT22;198;48.752;9.180;2023-05-29T01:41:29;15.00;62.60
423;DHT22;198;48.752;9.180;2023-05-29T01:43:57;14.90;63.10
423;DHT22;198;48.752;9.180;2023-05-29T01:46:23;14.90;63.20
423;DHT22;198;48.752;9.180;2023-05-29T01:48:51;14.80;64.80
423;DHT22;198;48.752;9.180;2023-05-29T01:51:18;14.90;66.60
423;DHT22;198;48.752;9.180;2023-05-29T01:53:43;14.80;68.20
423;DHT22;198;48.752;9.180;2023-05-29T01:56:12;14.70;70.00
423;DHT22;198;48.752;9.180;2023-05-29T01:58:38;14.60;70.50
423;DHT22;198;48.752;9.180;2023-05-29T02:01:05;14.60;71.70
423;DHT22;198;48.752;9.180;2023-05-29T02:03:32;14.60;72.70
423;DHT22;198;48.752;9.180;2023-05-29T02:05:59;14.50;74.00
423;DHT22;198;48.752;9.180;2023-05-29T02:08:24;14.40;75.00
423;DHT22;198;48.752;9.180;2023-05-29T02:10:50;14.40;76.00
423;DHT22;198;48.752;9.180;2023-05-29T02:13:16;14.30;76.40
423;DHT22;198;48.752;9.180;2023-05-29T02:15:42;14.30;76.90
423;DHT22;198;48.752;9.180;2023-05-29T02:18:12;14.20;77.60
423;DHT22;198;48.752;9.180;2023-05-29T02:20:38;14.20;78.40
423;DHT22;198;48.752;9.180;2023-05-29T02:23:04;14.10;78.30
423;DHT22;198;48.752;9.180;2023-05-29T02:25:30;14.10;79.50
423;DHT22;198;48.752;9.180;2023-05-29T02:27:55;14.00;80.30
423;DHT22;198;48.752;9.180;2023-05-29T02:30:20;14.00;81.10
423;DHT22;198;48.752;9.180;2023-05-29T02:32:46;14.00;82.10
423;DHT22;198;48.752;9.180;2023-05-29T02:35:12;13.90;82.40
423;DHT22;198;48.752;9.180;2023-05-29T02:37:40;13.90;82.30
423;DHT22;198;48.752;9.180;2023-05-29T02:40:06;13.80;83.70
423;DHT22;198;48.752;9.180;2023-05-29T02:42:33;13.80;84.50
423;DHT22;198;48.752;9.180;2023-05-29T02:44:59;13.80;85.70
423;DHT22;198;48.752;9.180;2023-05-29T02:47:24;13.80;87.00
423;DHT22;198;48.752;9.180;2023-05-29T02:49:50;13.70;87.90
423;DHT22;198;48.752;9.180;2023-05-29T02:52:15;13.70;88.80
423;DHT22;198;48.752;9.180;2023-05-29T02:54:41;13.70;89.90
423;DHT22;198;48.752;9.180;2023-05-29T02:57:06;13.60;90.20
423;DHT22;198;48.752;9.180;2023-05-29T02:59:32;13.70;90.70
423;DHT22;198;48.752;9.180;2023-05-29T03:01:57;13.60;90.70
423;DHT22;198;48.752;9.180;2023-05-29T03:04:23;13.50;90.70
423;DHT22;198;48.752;9.180;2023-05-29T03:06:48;13.50;90.90
423;DHT22;198;48.752;9.180;2023-05-29T03:09:14;13.50;91.60
423;DHT22;198;48.752;9.180;2023-05-29T03:11:41;13.50;91.60
423;DHT22;198;48.752;9.180;2023-05-29T03:14:07;13.40;92.00
423;DHT22;198;48.752;9.180;2023-05-29T03:16:32;13.40;92.80
423;DHT22;198;48.752;9.180;2023-05-29T03:18:58;13.40;93.30
423;DHT22;198;48.752;9.180;2023-05-29T03:21:24;13.40;93.60
423;DHT22;198;48.752;9.180;2023-05-29T03:23:49;13.40;93.90
423;DHT22;198;48.752;9.180;2023-05-29T03:26:15;13.30;94.30
423;DHT22;198;48.752;9.180;2023-05-29T03:28:41;13.30;94.10
423;DHT22;198;48.752;9.180;2023-05-29T03:31:06;13.30;94.50
423;DHT22;198;48.752;9.180;2023-05-29T03:33:34;13.30;94.60
423;DHT22;198;48.752;9.180;2023-05-29T03:36:00;13.30;94.80
423;DHT22;198;48.752;9.180;2023-05-29T03:38:25;13.30;94.30
423;DHT22;198;48.752;9.180;2023-05-29T03:40:51;13.40;94.20
423;DHT22;198;48.752;9.180;2023-05-29T03:43:16;13.40;94.40
423;DHT22;198;48.752;9.180;2023-05-29T03:45:42;13.40;95.00
423;DHT22;198;48.752;9.180;2023-05-29T03:48:07;13.40;94.80
423;DHT22;198;48.752;9.180;2023-05-29T03:50:33;13.40;94.70
423;DHT22;198;48.752;9.180;2023-05-29T03:52:58;13.40;94.80
423;DHT22;198;48.752;9.180;2023-05-29T03:55:26;13.50;94.80
423;DHT22;198;48.752;9.180;2023-05-29T03:57:52;13.50;94.90
423;DHT22;198;48.752;9.180;2023-05-29T04:00:17;13.50;95.20
423;DHT22;198;48.752;9.180;2023-05-29T04:02:43;13.50;95.60
423;DHT22;198;48.752;9.180;2023-05-29T04:05:09;13.50;95.90
423;DHT22;198;48.752;9.180;2023-05-29T04:07:36;13.60;95.80
423;DHT22;198;48.752;9.180;2023-05-29T04:10:02;13.60;95.70
423;DHT22;198;48.752;9.180;2023-05-29T04:12:28;13.60;95.90
423;DHT22;198;48.752;9.180;2023-05-29T04:14:54;13.60;95.80
423;DHT22;198;48.752;9.180;2023-05-29T04:17:19;13.60;95.80
423;DHT22;198;48.752;9.180;2023-05-29T04:19:45;13.70;95.90
423;DHT22;198;48.752;9.180;2023-05-29T04:22:10;13.70;95.50
423;DHT22;198;48.752;9.180;2023-05-29T04:24:36;13.80;95.80
423;DHT22;198;48.752;9.180;2023-05-29T04:27:01;13.80;95.30
423;DHT22;198;48.752;9.180;2023-05-29T04:29:28;13.80;94.20
423;DHT22;198;48.752;9.180;2023-05-29T04:31:54;13.90;94.10
423;DHT22;198;48.752;9.180;2023-05-29T04:34:20;14.00;94.70
423;DHT22;198;48.752;9.180;2023-05-29T04:36:47;14.10;94.70
423;DHT22;198;48.752;9.180;2023-05-29T04:39:13;14.10;94.90
423;DHT22;198;48.752;9.180;2023-05-29T04:41:42;14.20;95.50
423;DHT22;198;48.752;9.180;2023-05-29T04:44:08;14.30;94.70
423;DHT22;198;48.752;9.180;2023-05-29T04:46:35;14.30;94.70
423;DHT22;198;48.752;9.180;2023-05-29T04:49:02;14.50;94.60
423;DHT22;198;48.752;9.180;2023-05-29T04:51:28;14.50;94.40
423;DHT22;198;48.752;9.180;2023-05-29T04:53:55;14.60;93.80
423;DHT22;198;48.752;9.180;2023-05-29T04:56:20;14.70;94.10
423;DHT22;198;48.752;9.180;2023-05-29T04:58:47;14.70;94.10
423;DHT22;198;48.752;9.180;2023-05-29T05:01:12;14.80;94.70
423;DHT22;198;48.752;9.180;2023-05-29T05:03:43;14.90;94.80
423;DHT22;198;48.752;9.180;2023-05-29T05:06:09;15.00;94.40
423;DHT22;198;48.752;9.180;2023-05-29T05:08:35;15.00;93.60
423;DHT22;198;48.752;9.180;2023-05-29T05:11:01;15.10;92.70
423;DHT22;198;48.752;9.180;2023-05-29T05:13:27;15.20;91.80
423;DHT22;198;48.752;9.180;2023-05-29T05:15:52;15.20;92.10
423;DHT22;198;48.752;9.180;2023-05-29T05:18:18;15.20;91.20
423;DHT22;198;48.752;9.180;2023-05-29T05:20:44;15.30;90.90
423;DHT22;198;48.752;9.180;2023-05-29T05:23:09;15.40;91.60
423;DHT22;198;48.752;9.180;2023-05-29T05:25:36;15.50;91.60
423;DHT22;198;48.752;9.180;2023-05-29T05:28:02;15.50;90.50
423;DHT22;198;48.752;9.180;2023-05-29T05:30:31;15.60;90.40
423;DHT22;198;48.752;9.180;2023-05-29T05:32:57;15.70;90.50
423;DHT22;198;48.752;9.180;2023-05-29T05:35:22;15.80;90.50
423;DHT22;198;48.752;9.180;2023-05-29T05:37:48;15.90;90.50
423;DHT22;198;48.752;9.180;2023-05-29T05:40:14;16.00;88.90
423;DHT22;198;48.752;9.180;2023-05-29T05:42:39;16.10;88.00
423;DHT22;198;48.752;9.180;2023-05-29T05:45:05;16.20;86.90
423;DHT22;198;48.752;9.180;2023-05-29T05:47:32;16.30;86.80
423;DHT22;198;48.752;9.180;2023-05-29T05:49:57;16.40;84.40
423;DHT22;198;48.752;9.180;2023-05-29T05:52:24;16.50;82.50
423;DHT22;198;48.752;9.180;2023-05-29T05:54:51;16.60;79.80
423;DHT22;198;48.752;9.180;2023-05-29T05:57:16;16.70;81.80
423;DHT22;198;48.752;9.180;2023-05-29T05:59:42;16.80;79.80
423;DHT22;198;48.752;9.180;2023-05-29T06:02:07;16.90;81.00
423;DHT22;198;48.752;9.180;2023-05-29T06:04:33;16.90;78.10
423;DHT22;198;48.752;9.180;2023-05-29T06:06:58;17.00;79.80
423;DHT22;198;48.752;9.180;2023-05-29T06:09:24;17.10;80.00
423;DHT22;198;48.752;9.180;2023-05-29T06:11:51;17.20;81.50
423;DHT22;198;48.752;9.180;2023-05-29T06:14:16;17.20;80.20
423;DHT22;198;48.752;9.180;2023-05-29T06:16:42;17.20;80.40
423;DHT22;198;48.752;9.180;2023-05-29T06:19:08;17.20;79.90
423;DHT22;198;48.752;9.180;2023-05-29T06:21:34;17.20;78.00
423;DHT22;198;48.752;9.180;2023-05-29T06:23:59;17.20;77.30
423;DHT22;198;48.752;9.180;2023-05-29T06:26:25;17.20;77.20
423;DHT22;198;48.752;9.180;2023-05-29T06:28:52;17.20;77.90
423;DHT22;198;48.752;9.180;2023-05-29T06:31:17;17.20;77.00
423;DHT22;198;48.752;9.180;2023-05-29T06:33:43;17.30;76.80
423;DHT22;198;48.752;9.180;2023-05-29T06:36:09;17.30;76.10
423;DHT22;198;48.752;9.180;2023-05-29T06:38:34;17.30;76.60
423;DHT22;198;48.752;9.180;2023-05-29T06:41:00;17.30;76.30
423;DHT22;198;48.752;9.180;2023-05-29T06:43:28;17.40;77.30
423;DHT22;198;48.752;9.180;2023-05-29T06:45:54;17.50;77.20
423;DHT22;198;48.752;9.180;2023-05-29T06:48:19;17.50;75.30
423;DHT22;198;48.752;9.180;2023-05-29T06:50:45;17.60;75.20
423;DHT22;198;48.752;9.180;2023-05-29T06:53:11;17.60;74.60
423;DHT22;198;48.752;9.180;2023-05-29T06:55:36;17.70;74.80
423;DHT22;198;48.752;9.180;2023-05-29T06:58:02;17.80;74.10
423;DHT22;198;48.752;9.180;2023-05-29T07:00:27;17.80;74.90
423;DHT22;198;48.752;9.180;2023-05-29T07:02:53;17.90;74.40
423;DHT22;198;48.752;9.180;2023-05-29T07:05:19;18.00;73.50
423;DHT22;198;48.752;9.180;2023-05-29T07:07:45;18.20;73.80
423;DHT22;198;48.752;9.180;2023-05-29T07:10:10;18.20;73.30
423;DHT22;198;48.752;9.180;2023-05-29T07:12:36;18.40;73.50
423;DHT22;198;48.752;9.180;2023-05-29T07:15:01;18.50;73.20
423;DHT22;198;48.752;9.180;2023-05-29T07:17:27;18.50;72.30
423;DHT22;198;48.752;9.180;2023-05-29T07:19:53;18.60;70.10
423;DHT22;198;48.752;9.180;2023-05-29T07:22:19;18.70;70.30
423;DHT22;198;48.752;9.180;2023-05-29T07:24:45;18.70;69.70
423;DHT22;198;48.752;9.180;2023-05-29T07:27:10;18.80;68.70
423;DHT22;198;48.752;9.180;2023-05-29T07:29:36;18.90;68.00
423;DHT22;198;48.752;9.180;2023-05-29T07:32:02;18.90;67.80
423;DHT22;198;48.752;9.180;2023-05-29T07:34:27;19.00;67.70
423;DHT22;198;48.752;9.180;2023-05-29T07:37:00;19.10;67.90
423;DHT22;198;48.752;9.180;2023-05-29T07:39:26;19.20;67.20
423;DHT22;198;48.752;9.180;2023-05-29T07:41:52;19.30;67.20
423;DHT22;198;48.752;9.180;2023-05-29T07:44:18;19.40;67.40
423;DHT22;198;48.752;9.180;2023-05-29T07:46:43;19.50;67.20
423;DHT22;198;48.752;9.180;2023-05-29T07:49:09;19.60;67.20
423;DHT22;198;48.752;9.180;2023-05-29T07:51:34;19.70;67.50
423;DHT22;198;48.752;9.180;2023-05-29T07:54:00;19.70;67.10
423;DHT22;198;48.752;9.180;2023-05-29T07:56:25;19.80;66.90
423;DHT22;198;48.752;9.180;2023-05-29T07:58:51;19.90;66.90
423;DHT22;198;48.752;9.180;2023-05-29T08:01:19;20.00;65.40
423;DHT22;198;48.752;9.180;2023-05-29T08:03:44;20.00;63.90
423;DHT22;198;48.752;9.180;2023-05-29T08:06:10;20.10;62.70
423;DHT22;198;48.752;9.180;2023-05-29T08:08:35;20.10;63.20
423;DHT22;198;48.752;9.180;2023-05-29T08:11:01;20.30;62.50
423;DHT22;198;48.752;9.180;2023-05-29T08:13:27;20.30;62.10
423;DHT22;198;48.752;9.180;2023-05-29T08:15:53;20.40;61.60
423;DHT22;198;48.752;9.180;2023-05-29T08:18:18;20.50;60.70
423;DHT22;198;48.752;9.180;2023-05-29T08:20:44;20.60;61.40
423;DHT22;198;48.752;9.180;2023-05-29T08:23:10;20.70;59.80
423;DHT22;198;48.752;9.180;2023-05-29T08:25:35;20.90;59.40
423;DHT22;198;48.752;9.180;2023-05-29T08:28:01;21.10;58.90
423;DHT22;198;48.752;9.180;2023-05-29T08:30:27;21.30;58.20
423;DHT22;198;48.752;9.180;2023-05-29T08:32:52;21.40;57.70
423;DHT22;198;48.752;9.180;2023-05-29T08:35:18;21.60;57.90
423;DHT22;198;48.752;9.180;2023-05-29T08:37:43;21.70;57.60
423;DHT22;198;48.752;9.180;2023-05-29T08:40:09;21.90;57.00
423;DHT22;198;48.752;9.180;2023-05-29T08:42:43;22.00;56.30
423;DHT22;198;48.752;9.180;2023-05-29T08:45:13;22.10;55.70
423;DHT22;198;48.752;9.180;2023-05-29T08:47:40;22.20;55.80
423;DHT22;198;48.752;9.180;2023-05-29T08:50:07;22.40;56.40
423;DHT22;198;48.752;9.180;2023-05-29T08:52:34;22.60;56.30
423;DHT22;198;48.752;9.180;2023-05-29T08:55:03;22.60;56.10
423;DHT22;198;48.752;9.180;2023-05-29T08:57:29;22.80;55.60
423;DHT22;198;48.752;9.180;2023-05-29T08:59:56;22.80;55.30
423;DHT22;198;48.752;9.180;2023-05-29T09:02:22;23.00;54.60
423;DHT22;198;48.752;9.180;2023-05-29T09:04:47;23.10;54.60
423;DHT22;198;48.752;9.180;2023-05-29T09:07:19;23.10;54.20
423;DHT22;198;48.752;9.180;2023-05-29T09:09:46;23.30;53.80
423;DHT22;198;48.752;9.180;2023-05-29T09:12:11;23.30;53.70
423;DHT22;198;48.752;9.180;2023-05-29T09:14:42;23.50;54.20
423;DHT22;198;48.752;9.180;2023-05-29T09:17:09;23.60;54.20
423;DHT22;198;48.752;9.180;2023-05-29T09:19:35;23.60;53.40
423;DHT22;198;48.752;9.180;2023-05-29T09:22:05;23.60;53.90
423;DHT22;198;48.752;9.180;2023-05-29T09:24:34;23.80;53.60
423;DHT22;198;48.752;9.180;2023-05-29T09:27:02;24.00;51.80
423;DHT22;198;48.752;9.180;2023-05-29T09:29:42;24.00;52.80
423;DHT22;198;48.752;9.180;2023-05-29T09:32:13;24.30;52.70
423;DHT22;198;48.752;9.180;2023-05-29T09:34:39;24.60;51.80
423;DHT22;198;48.752;9.180;2023-05-29T09:37:06;24.90;52.90
423;DHT22;198;48.752;9.180;2023-05-29T09:42:08;25.60;51.10
423;DHT22;198;48.752;9.180;2023-05-29T09:44:34;26.20;51.30
423;DHT22;198;48.752;9.180;2023-05-29T09:47:00;27.00;49.70
423;DHT22;198;48.752;9.180;2023-05-29T09:49:25;28.20;48.30
423;DHT22;198;48.752;9.180;2023-05-29T09:51:56;29.70;45.10
423;DHT22;198;48.752;9.180;2023-05-29T09:54:27;31.10;42.40
423;DHT22;198;48.752;9.180;2023-05-29T09:56:54;32.50;39.70
423;DHT22;198;48.752;9.180;2023-05-29T09:59:23;33.70;37.30
423;DHT22;198;48.752;9.180;2023-05-29T10:02:04;35.10;35.20
423;DHT22;198;48.752;9.180;2023-05-29T10:04:32;36.30;33.10
423;DHT22;198;48.752;9.180;2023-05-29T10:07:04;37.60;31.80
423;DHT22;198;48.752;9.180;2023-05-29T10:09:30;38.90;29.40
423;DHT22;198;48.752;9.180;2023-05-29T10:12:00;39.80;27.20
423;DHT22;198;48.752;9.180;2023-05-29T10:14:31;40.80;26.80
423;DHT22;198;48.752;9.180;2023-05-29T10:16:58;42.00;26.10
423;DHT22;198;48.752;9.180;2023-05-29T10:19:29;43.10;24.50
423;DHT22;198;48.752;9.180;2023-05-29T10:21:55;44.10;24.20
423;DHT22;198;48.752;9.180;2023-05-29T10:24:22;44.60;23.70
423;DHT22;198;48.752;9.180;2023-05-29T10:26:49;45.40;22.40
423;DHT22;198;48.752;9.180;2023-05-29T10:29:26;46.90;21.90
423;DHT22;198;48.752;9.180;2023-05-29T10:32:21;48.10;20.90
423;DHT22;198;48.752;9.180;2023-05-29T10:40:24;48.10;19.20
423;DHT22;198;48.752;9.180;2023-05-29T10:42:51;48.10;19.70
423;DHT22;198;48.752;9.180;2023-05-29T10:50:42;53.20;17.90
423;DHT22;198;48.752;9.180;2023-05-29T10:53:09;54.00;17.10
423;DHT22;198;48.752;9.180;2023-05-29T10:55:39;54.60;17.20
423;DHT22;198;48.752;9.180;2023-05-29T10:58:19;54.90;16.40
423;DHT22;198;48.752;9.180;2023-05-29T11:00:46;55.30;16.50
423;DHT22;198;48.752;9.180;2023-05-29T11:03:14;55.50;16.70
423;DHT22;198;48.752;9.180;2023-05-29T11:06:01;55.60;16.30
423;DHT22;198;48.752;9.180;2023-05-29T11:08:43;55.00;15.80
423;DHT22;198;48.752;9.180;2023-05-29T11:11:13;55.60;15.70
423;DHT22;198;48.752;9.180;2023-05-29T11:13:39;56.30;15.80
423;DHT22;198;48.752;9.180;2023-05-29T11:18:51;56.90;15.60
423;DHT22;198;48.752;9.180;2023-05-29T11:23:53;58.10;15.60
423;DHT22;198;48.752;9.180;2023-05-29T11:26:21;58.00;15.10
423;DHT22;198;48.752;9.180;2023-05-29T11:28:48;58.50;15.20
423;DHT22;198;48.752;9.180;2023-05-29T11:31:15;57.90;14.90
423;DHT22;198;48.752;9.180;2023-05-29T11:33:48;57.40;14.90
423;DHT22;198;48.752;9.180;2023-05-29T11:36:21;57.40;15.00
423;DHT22;198;48.752;9.180;2023-05-29T11:38:47;57.60;14.60
423;DHT22;198;48.752;9.180;2023-05-29T11:41:12;58.00;14.80
423;DHT22;198;48.752;9.180;2023-05-29T11:43:38;57.80;14.70
423;DHT22;198;48.752;9.180;2023-05-29T11:46:19;57.90;14.70
423;DHT22;198;48.752;9.180;2023-05-29T11:48:48;58.40;14.80
423;DHT22;198;48.752;9.180;2023-05-29T11:51:14;59.00;14.60
423;DHT22;198;48.752;9.180;2023-05-29T11:53:41;59.20;14.50
423;DHT22;198;48.752;9.180;2023-05-29T11:56:10;58.90;14.20
423;DHT22;198;48.752;9.180;2023-05-29T11:58:37;59.30;14.70
423;DHT22;198;48.752;9.180;2023-05-29T12:01:04;59.30;13.90
423;DHT22;198;48.752;9.180;2023-05-29T12:03:30;59.70;13.60
423;DHT22;198;48.752;9.180;2023-05-29T12:05:55;60.10;14.00
423;DHT22;198;48.752;9.180;2023-05-29T12:08:22;59.90;13.60
423;DHT22;198;48.752;9.180;2023-05-29T12:10:50;60.30;14.10
423;DHT22;198;48.752;9.180;2023-05-29T12:13:15;60.00;13.80
423;DHT22;198;48.752;9.180;2023-05-29T12:15:43;60.40;13.50
423;DHT22;198;48.752;9.180;2023-05-29T12:18:09;61.10;13.20
423;DHT22;198;48.752;9.180;2023-05-29T12:20:35;61.70;13.60
423;DHT22;198;48.752;9.180;2023-05-29T12:23:02;61.60;13.20
423;DHT22;198;48.752;9.180;2023-05-29T12:25:28;61.60;13.20
423;DHT22;198;48.752;9.180;2023-05-29T12:27:55;61.90;13.40
423;DHT22;198;48.752;9.180;2023-05-29T12:30:22;61.60;13.20
423;DHT22;198;48.752;9.180;2023-05-29T12:32:52;61.10;13.10
423;DHT22;198;48.752;9.180;2023-05-29T12:35:25;60.80;13.30
423;DHT22;198;48.752;9.180;2023-05-29T12:37:56;60.80;13.20
423;DHT22;198;48.752;9.180;2023-05-29T12:40:24;61.00;13.30
423;DHT22;198;48.752;9.180;2023-05-29T12:45:24;61.20;13.10
423;DHT22;198;48.752;9.180;2023-05-29T12:47:56;60.80;12.90
423;DHT22;198;48.752;9.180;2023-05-29T12:50:26;60.40;12.40
423;DHT22;198;48.752;9.180;2023-05-29T12:53:02;59.90;13.10
423;DHT22;198;48.752;9.180;2023-05-29T12:55:30;59.80;12.80
423;DHT22;198;48.752;9.180;2023-05-29T12:57:59;60.40;13.10
423;DHT22;198;48.752;9.180;2023-05-29T13:00:24;60.30;12.60
423;DHT22;198;48.752;9.180;2023-05-29T13:02:50;60.80;12.60
423;DHT22;198;48.752;9.180;2023-05-29T13:05:16;60.80;12.60
423;DHT22;198;48.752;9.180;2023-05-29T13:07:45;60.60;12.60
423;DHT22;198;48.752;9.180;2023-05-29T13:10:11;60.80;12.40
423;DHT22;198;48.752;9.180;2023-05-29T13:12:36;60.80;12.50
423;DHT22;198;48.752;9.180;2023-05-29T13:15:02;60.90;12.60
423;DHT22;198;48.752;9.180;2023-05-29T13:17:28;60.90;12.60
423;DHT22;198;48.752;9.180;2023-05-29T13:19:53;60.90;12.80
423;DHT22;198;48.752;9.180;2023-05-29T13:22:19;61.10;12.60
423;DHT22;198;48.752;9.180;2023-05-29T13:24:45;61.00;12.30
423;DHT22;198;48.752;9.180;2023-05-29T13:27:11;61.10;12.70
423;DHT22;198;48.752;9.180;2023-05-29T13:29:39;60.70;12.40
423;DHT22;198;48.752;9.180;2023-05-29T13:32:06;60.60;12.30
423;DHT22;198;48.752;9.180;2023-05-29T13:34:32;60.70;12.70
423;DHT22;198;48.752;9.180;2023-05-29T13:36:57;60.00;12.50
423;DHT22;198;48.752;9.180;2023-05-29T13:39:23;60.30;12.60
423;DHT22;198;48.752;9.180;2023-05-29T13:41:50;60.30;12.40
423;DHT22;198;48.752;9.180;2023-05-29T13:44:15;60.40;12.50
423;DHT22;198;48.752;9.180;2023-05-29T13:46:41;60.80;12.90
423;DHT22;198;48.752;9.180;2023-05-29T13:49:06;60.90;12.40
423;DHT22;198;48.752;9.180;2023-05-29T13:51:35;60.90;12.60
423;DHT22;198;48.752;9.180;2023-05-29T13:54:02;60.80;12.40
423;DHT22;198;48.752;9.180;2023-05-29T13:56:29;60.70;12.60
423;DHT22;198;48.752;9.180;2023-05-29T13:58:54;60.40;12.30
423;DHT22;198;48.752;9.180;2023-05-29T14:01:20;59.80;12.50
423;DHT22;198;48.752;9.180;2023-05-29T14:03:46;59.60;12.40
423;DHT22;198;48.752;9.180;2023-05-29T14:06:12;59.60;12.00
423;DHT22;198;48.752;9.180;2023-05-29T14:08:37;59.50;12.60
423;DHT22;198;48.752;9.180;2023-05-29T14:11:03;59.30;12.30
423;DHT22;198;48.752;9.180;2023-05-29T14:13:29;59.00;12.60
423;DHT22;198;48.752;9.180;2023-05-29T14:15:54;59.20;12.80
423;DHT22;198;48.752;9.180;2023-05-29T14:18:22;59.60;12.70
423;DHT22;198;48.752;9.180;2023-05-29T14:20:48;59.50;12.60
423;DHT22;198;48.752;9.180;2023-05-29T14:23:14;59.10;12.50
423;DHT22;198;48.752;9.180;2023-05-29T14:25:41;58.70;12.90
423;DHT22;198;48.752;9.180;2023-05-29T14:28:07;58.70;12.80
423;DHT22;198;48.752;9.180;2023-05-29T14:30:33;58.70;13.00
423;DHT22;198;48.752;9.180;2023-05-29T14:32:58;58.50;12.70
423;DHT22;198;48.752;9.180;2023-05-29T14:35:25;58.10;12.40
423;DHT22;198;48.752;9.180;2023-05-29T14:37:50;58.00;13.20
423;DHT22;198;48.752;9.180;2023-05-29T14:40:16;58.00;13.00
423;DHT22;198;48.752;9.180;2023-05-29T14:42:41;58.20;12.80
423;DHT22;198;48.752;9.180;2023-05-29T14:45:07;58.20;13.10
423;DHT22;198;48.752;9.180;2023-05-29T14:47:33;57.80;12.80
423;DHT22;198;48.752;9.180;2023-05-29T14:49:58;57.20;13.20
423;DHT22;198;48.752;9.180;2023-05-29T14:52:24;56.80;13.20
423;DHT22;198;48.752;9.180;2023-05-29T14:54:49;56.70;13.10
423;DHT22;198;48.752;9.180;2023-05-29T14:57:15;56.70;13.10
423;DHT22;198;48.752;9.180;2023-05-29T14:59:40;56.70;13.20
423;DHT22;198;48.752;9.180;2023-05-29T15:02:06;56.60;13.40
423;DHT22;198;48.752;9.180;2023-05-29T15:04:31;56.60;12.80
423;DHT22;198;48.752;9.180;2023-05-29T15:06:57;56.00;12.70
423;DHT22;198;48.752;9.180;2023-05-29T15:09:22;55.60;13.30
423;DHT22;198;48.752;9.180;2023-05-29T15:11:48;55.40;13.40
423;DHT22;198;48.752;9.180;2023-05-29T15:14:13;55.40;13.40
423;DHT22;198;48.752;9.180;2023-05-29T15:16:39;55.50;13.50
423;DHT22;198;48.752;9.180;2023-05-29T15:19:05;55.50;13.10
423;DHT22;198;48.752;9.180;2023-05-29T15:21:31;55.60;13.70
423;DHT22;198;48.752;9.180;2023-05-29T15:23:57;55.60;13.10
423;DHT22;198;48.752;9.180;2023-05-29T15:26:22;55.40;13.30
423;DHT22;198;48.752;9.180;2023-05-29T15:28:48;55.10;13.00
423;DHT22;198;48.752;9.180;2023-05-29T15:31:13;54.50;13.00
423;DHT22;198;48.752;9.180;2023-05-29T15:33:39;54.20;13.60
423;DHT22;198;48.752;9.180;2023-05-29T15:36:05;54.10;13.90
423;DHT22;198;48.752;9.180;2023-05-29T15:38:31;54.00;14.20
423;DHT22;198;48.752;9.180;2023-05-29T15:40:58;53.80;14.30
423;DHT22;198;48.752;9.180;2023-05-29T15:43:23;53.30;14.10
423;DHT22;198;48.752;9.180;2023-05-29T15:45:50;53.40;14.30
423;DHT22;198;48.752;9.180;2023-05-29T15:48:16;53.10;14.50
423;DHT22;198;48.752;9.180;2023-05-29T15:50:41;52.70;14.40
423;DHT22;198;48.752;9.180;2023-05-29T15:53:07;52.70;14.90
423;DHT22;198;48.752;9.180;2023-05-29T15:55:33;52.10;14.80
423;DHT22;198;48.752;9.180;2023-05-29T15:57:58;51.90;15.00
423;DHT22;198;48.752;9.180;2023-05-29T16:00:24;51.60;15.10
423;DHT22;198;48.752;9.180;2023-05-29T16:02:49;51.60;15.30
423;DHT22;198;48.752;9.180;2023-05-29T16:05:15;51.10;15.10
423;DHT22;198;48.752;9.180;2023-05-29T16:07:41;50.50;15.20
423;DHT22;198;48.752;9.180;2023-05-29T16:10:12;50.30;15.30
423;DHT22;198;48.752;9.180;2023-05-29T16:12:38;49.60;15.30
423;DHT22;198;48.752;9.180;2023-05-29T16:15:03;49.40;15.80
423;DHT22;198;48.752;9.180;2023-05-29T16:17:29;48.80;15.60
423;DHT22;198;48.752;9.180;2023-05-29T16:19:55;48.70;15.60
423;DHT22;198;48.752;9.180;2023-05-29T16:22:22;48.30;15.90
423;DHT22;198;48.752;9.180;2023-05-29T16:24:48;48.10;16.20
423;DHT22;198;48.752;9.180;2023-05-29T16:27:13;47.90;16.30
423;DHT22;198;48.752;9.180;2023-05-29T16:29:39;47.00;16.10
423;DHT22;198;48.752;9.180;2023-05-29T16:32:04;46.60;16.20
423;DHT22;198;48.752;9.180;2023-05-29T16:34:30;46.30;16.40
423;DHT22;198;48.752;9.180;2023-05-29T16:36:55;45.80;16.50
423;DHT22;198;48.752;9.180;2023-05-29T16:39:21;45.70;16.50
423;DHT22;198;48.752;9.180;2023-05-29T16:41:50;45.40;16.80
423;DHT22;198;48.752;9.180;2023-05-29T16:44:15;44.80;16.90
423;DHT22;198;48.752;9.180;2023-05-29T16:46:41;44.00;17.00
423;DHT22;198;48.752;9.180;2023-05-29T16:49:06;42.70;17.40
423;DHT22;198;48.752;9.180;2023-05-29T16:51:32;41.40;18.10
423;DHT22;198;48.752;9.180;2023-05-29T16:53:58;39.60;19.00
423;DHT22;198;48.752;9.180;2023-05-29T16:56:23;37.70;19.90
423;DHT22;198;48.752;9.180;2023-05-29T16:58:49;36.20;20.60
423;DHT22;198;48.752;9.180;2023-05-29T17:01:14;34.80;21.60